sensor_id;sensor_type;location;lat;lon;timestamp;temperature;humidity
19586;DHT22;9939;49.246;9.106;2022-09-17T00:01:09;9.40;99.90
19586;DHT22;9939;49.246;9.106;2022-09-17T00:03:37;9.40;99.90
19586;DHT22;9939;49.246;9.106;2022-09-17T00:06:09;9.30;99.90
19586;DHT22;9939;49.246;9.106;2022-09-17T00:08:38;9.30;99.90
19586;DHT22;9939;49.246;9.106;2022-09-17T00:11:14;9.20;99.90
19586;DHT22;9939;49.246;9.106;2022-09-17T00:13:43;9.00;99.90
19586;DHT22;9939;49.246;9.106;2022-09-17T00:16:11;9.10;99.90
19586;DHT22;9939;49.246;9.106;2022-09-17T00:18:39;9.10;99.90
19586;DHT22;9939;49.246;9.106;2022-09-17T00:21:18;9.00;99.90
19586;DHT22;9939;49.246;9.106;2022-09-17T00:23:46;9.00;99.90
19586;DHT22;9939;49.246;9.106;2022-09-17T00:26:13;9.00;99.90
19586;DHT22;9939;49.246;9.106;2022-09-17T00:28:40;9.00;99.90
19586;DHT22;9939;49.246;9.106;2022-09-17T00:31:11;9.00;99.90
19586;DHT22;9939;49.246;9.106;2022-09-17T00:33:38;8.90;99.90
19586;DHT22;9939;49.246;9.106;2022-09-17T00:36:05;8.90;99.90
19586;DHT22;9939;49.246;9.106;2022-09-17T00:38:33;8.90;99.90
19586;DHT22;9939;49.246;9.106;2022-09-17T00:41:01;8.80;99.90
19586;DHT22;9939;49.246;9.106;2022-09-17T00:46:08;8.80;99.90
19586;DHT22;9939;49.246;9.106;2022-09-17T00:48:35;8.90;99.90
19586;DHT22;9939;49.246;9.106;2022-09-17T00:51:04;8.90;99.90
19586;DHT22;9939;49.246;9.106;2022-09-17T00:53:34;8.90;99.90
19586;DHT22;9939;49.246;9.106;2022-09-17T00:56:10;8.90;99.90
19586;DHT22;9939;49.246;9.106;2022-09-17T00:58:40;9.10;99.90
19586;DHT22;9939;49.246;9.106;2022-09-17T01:01:07;9.00;99.90
19586;DHT22;9939;49.246;9.106;2022-09-17T01:03:34;9.00;99.90
19586;DHT22;9939;49.246;9.106;2022-09-17T01:22:31;9.10;99.90
19586;DHT22;9939;49.246;9.106;2022-09-17T01:25:28;9.10;99.90
19586;DHT22;9939;49.246;9.106;2022-09-17T01:28:21;9.00;99.90
19586;DHT22;9939;49.246;9.106;2022-09-17T01:36:41;9.40;99.90
19586;DHT22;9939;49.246;9.106;2022-09-17T01:42:29;9.40;99.90
19586;DHT22;9939;49.246;9.106;2022-09-17T01:47:53;9.50;99.90
19586;DHT22;9939;49.246;9.106;2022-09-17T01:50:30;9.40;99.90
19586;DHT22;9939;49.246;9.106;2022-09-17T01:52:59;9.40;99.90
19586;DHT22;9939;49.246;9.106;2022-09-17T01:55:31;9.30;99.90
19586;DHT22;9939;49.246;9.106;2022-09-17T01:58:12;9.30;99.90
19586;DHT22;9939;49.246;9.106;2022-09-17T02:00:45;9.30;99.90
19586;DHT22;9939;49.246;9.106;2022-09-17T02:03:23;9.30;99.90
19586;DHT22;9939;49.246;9.106;2022-09-17T02:05:59;9.30;99.90
19586;DHT22;9939;49.246;9.106;2022-09-17T02:11:18;9.10;99.90
19586;DHT22;9939;49.246;9.106;2022-09-17T02:16:28;9.10;99.90
19586;DHT22;9939;49.246;9.106;2022-09-17T02:19:20;9.10;99.90
19586;DHT22;9939;49.246;9.106;2022-09-17T02:22:05;9.00;99.90
19586;DHT22;9939;49.246;9.106;2022-09-17T02:24:51;9.20;99.90
19586;DHT22;9939;49.246;9.106;2022-09-17T02:27:51;9.10;99.90
19586;DHT22;9939;49.246;9.106;2022-09-17T02:30:19;8.90;99.90
19586;DHT22;9939;49.246;9.106;2022-09-17T02:32:47;8.90;99.90
19586;DHT22;9939;49.246;9.106;2022-09-17T02:35:15;8.90;99.90
19586;DHT22;9939;49.246;9.106;2022-09-17T02:37:42;8.90;99.90
19586;DHT22;9939;49.246;9.106;2022-09-17T02:40:13;8.90;99.90
19586;DHT22;9939;49.246;9.106;2022-09-17T02:56:37;8.60;99.90
19586;DHT22;9939;49.246;9.106;2022-09-17T02:59:22;8.70;99.90
19586;DHT22;9939;49.246;9.106;2022-09-17T03:04:27;8.50;99.90
19586;DHT22;9939;49.246;9.106;2022-09-17T03:06:55;8.40;99.90
19586;DHT22;9939;49.246;9.106;2022-09-17T03:09:25;8.50;99.90
19586;DHT22;9939;49.246;9.106;2022-09-17T03:11:52;8.30;99.90
19586;DHT22;9939;49.246;9.106;2022-09-17T03:14:19;8.30;99.90
19586;DHT22;9939;49.246;9.106;2022-09-17T03:16:46;8.30;99.90
19586;DHT22;9939;49.246;9.106;2022-09-17T03:19:13;8.30;99.90
19586;DHT22;9939;49.246;9.106;2022-09-17T03:21:40;8.20;99.90
19586;DHT22;9939;49.246;9.106;2022-09-17T03:24:07;8.30;99.90
19586;DHT22;9939;49.246;9.106;2022-09-17T03:26:37;8.30;99.90
19586;DHT22;9939;49.246;9.106;2022-09-17T03:29:04;8.40;99.90
19586;DHT22;9939;49.246;9.106;2022-09-17T03:31:31;8.40;99.90
19586;DHT22;9939;49.246;9.106;2022-09-17T03:33:58;8.40;99.90
19586;DHT22;9939;49.246;9.106;2022-09-17T03:36:25;8.20;99.90
19586;DHT22;9939;49.246;9.106;2022-09-17T03:38:56;8.30;99.90
19586;DHT22;9939;49.246;9.106;2022-09-17T03:41:23;8.30;99.90
19586;DHT22;9939;49.246;9.106;2022-09-17T03:43:51;8.30;99.90
19586;DHT22;9939;49.246;9.106;2022-09-17T03:46:19;8.20;99.90
19586;DHT22;9939;49.246;9.106;2022-09-17T03:48:46;8.30;99.90
19586;DHT22;9939;49.246;9.106;2022-09-17T03:51:13;8.20;99.90
19586;DHT22;9939;49.246;9.106;2022-09-17T03:53:40;8.20;99.90
19586;DHT22;9939;49.246;9.106;2022-09-17T03:56:07;8.30;99.90
19586;DHT22;9939;49.246;9.106;2022-09-17T03:58:35;8.30;99.90
19586;DHT22;9939;49.246;9.106;2022-09-17T04:01:02;8.20;99.90
19586;DHT22;9939;49.246;9.106;2022-09-17T04:03:30;8.20;99.90
19586;DHT22;9939;49.246;9.106;2022-09-17T04:05:58;8.20;99.90
19586;DHT22;9939;49.246;9.106;2022-09-17T04:08:25;8.30;99.90
19586;DHT22;9939;49.246;9.106;2022-09-17T04:10:52;8.30;99.90
19586;DHT22;9939;49.246;9.106;2022-09-17T04:13:20;8.20;99.90
19586;DHT22;9939;49.246;9.106;2022-09-17T04:15:48;8.20;99.90
19586;DHT22;9939;49.246;9.106;2022-09-17T04:18:15;8.10;99.90
19586;DHT22;9939;49.246;9.106;2022-09-17T04:20:42;8.00;99.90
19586;DHT22;9939;49.246;9.106;2022-09-17T04:23:11;8.10;99.90
19586;DHT22;9939;49.246;9.106;2022-09-17T04:25:38;8.10;99.90
19586;DHT22;9939;49.246;9.106;2022-09-17T04:28:05;8.10;99.90
19586;DHT22;9939;49.246;9.106;2022-09-17T04:30:32;8.10;99.90
19586;DHT22;9939;49.246;9.106;2022-09-17T04:32:59;8.00;99.90
19586;DHT22;9939;49.246;9.106;2022-09-17T04:35:26;8.20;99.90
19586;DHT22;9939;49.246;9.106;2022-09-17T04:37:55;8.40;99.90
19586;DHT22;9939;49.246;9.106;2022-09-17T04:40:23;8.30;99.90
19586;DHT22;9939;49.246;9.106;2022-09-17T04:42:54;8.30;99.90
19586;DHT22;9939;49.246;9.106;2022-09-17T04:45:22;8.30;99.90
19586;DHT22;9939;49.246;9.106;2022-09-17T04:47:49;8.50;99.90
19586;DHT22;9939;49.246;9.106;2022-09-17T04:50:19;8.50;99.90
19586;DHT22;9939;49.246;9.106;2022-09-17T04:52:47;8.60;99.90
19586;DHT22;9939;49.246;9.106;2022-09-17T04:55:14;8.60;99.90
19586;DHT22;9939;49.246;9.106;2022-09-17T04:57:48;8.60;99.90
19586;DHT22;9939;49.246;9.106;2022-09-17T05:00:17;8.70;99.90
19586;DHT22;9939;49.246;9.106;2022-09-17T05:02:45;8.70;99.90
19586;DHT22;9939;49.246;9.106;2022-09-17T05:05:13;8.70;99.90
19586;DHT22;9939;49.246;9.106;2022-09-17T05:07:41;8.70;99.90
19586;DHT22;9939;49.246;9.106;2022-09-17T05:10:09;8.80;99.90
19586;DHT22;9939;49.246;9.106;2022-09-17T05:12:36;8.80;99.90
19586;DHT22;9939;49.246;9.106;2022-09-17T05:15:04;8.90;99.90
19586;DHT22;9939;49.246;9.106;2022-09-17T05:17:32;8.80;99.90
19586;DHT22;9939;49.246;9.106;2022-09-17T05:19:59;8.90;99.90
19586;DHT22;9939;49.246;9.106;2022-09-17T05:22:26;9.00;99.90
19586;DHT22;9939;49.246;9.106;2022-09-17T05:24:52;9.10;99.90
19586;DHT22;9939;49.246;9.106;2022-09-17T05:27:20;9.10;99.90
19586;DHT22;9939;49.246;9.106;2022-09-17T05:29:46;9.10;99.90
19586;DHT22;9939;49.246;9.106;2022-09-17T05:32:14;9.10;99.90
19586;DHT22;9939;49.246;9.106;2022-09-17T05:34:40;9.10;99.90
19586;DHT22;9939;49.246;9.106;2022-09-17T05:37:11;9.30;99.90
19586;DHT22;9939;49.246;9.106;2022-09-17T05:39:38;9.30;99.90
19586;DHT22;9939;49.246;9.106;2022-09-17T05:42:05;9.40;99.90
19586;DHT22;9939;49.246;9.106;2022-09-17T05:44:32;9.30;99.90
19586;DHT22;9939;49.246;9.106;2022-09-17T05:46:59;9.30;99.90
19586;DHT22;9939;49.246;9.106;2022-09-17T05:49:26;9.30;99.90
19586;DHT22;9939;49.246;9.106;2022-09-17T05:51:53;9.20;99.90
19586;DHT22;9939;49.246;9.106;2022-09-17T05:54:20;9.00;99.90
19586;DHT22;9939;49.246;9.106;2022-09-17T05:56:47;9.00;99.90
19586;DHT22;9939;49.246;9.106;2022-09-17T05:59:18;8.90;99.90
19586;DHT22;9939;49.246;9.106;2022-09-17T06:01:45;8.90;99.90
19586;DHT22;9939;49.246;9.106;2022-09-17T06:04:12;8.90;99.90
19586;DHT22;9939;49.246;9.106;2022-09-17T06:06:40;8.90;99.90
19586;DHT22;9939;49.246;9.106;2022-09-17T06:09:07;9.00;99.90
19586;DHT22;9939;49.246;9.106;2022-09-17T06:11:38;8.90;99.90
19586;DHT22;9939;49.246;9.106;2022-09-17T06:14:05;9.00;99.90
19586;DHT22;9939;49.246;9.106;2022-09-17T06:16:32;8.90;99.90
19586;DHT22;9939;49.246;9.106;2022-09-17T06:18:59;8.80;99.90
19586;DHT22;9939;49.246;9.106;2022-09-17T06:21:26;8.90;99.90
19586;DHT22;9939;49.246;9.106;2022-09-17T06:23:53;9.00;99.90
19586;DHT22;9939;49.246;9.106;2022-09-17T06:26:20;8.90;99.90
19586;DHT22;9939;49.246;9.106;2022-09-17T06:28:47;9.00;99.90
19586;DHT22;9939;49.246;9.106;2022-09-17T06:31:14;9.00;99.90
19586;DHT22;9939;49.246;9.106;2022-09-17T06:33:41;8.90;99.90
19586;DHT22;9939;49.246;9.106;2022-09-17T06:36:09;9.00;99.90
19586;DHT22;9939;49.246;9.106;2022-09-17T06:38:40;9.00;99.90
19586;DHT22;9939;49.246;9.106;2022-09-17T06:41:07;8.90;99.90
19586;DHT22;9939;49.246;9.106;2022-09-17T06:43:34;9.00;99.90
19586;DHT22;9939;49.246;9.106;2022-09-17T06:46:03;9.00;99.90
19586;DHT22;9939;49.246;9.106;2022-09-17T06:48:36;9.10;99.90
19586;DHT22;9939;49.246;9.106;2022-09-17T06:51:09;9.10;99.90
19586;DHT22;9939;49.246;9.106;2022-09-17T06:53:37;9.00;99.90
19586;DHT22;9939;49.246;9.106;2022-09-17T06:56:06;9.10;99.90
19586;DHT22;9939;49.246;9.106;2022-09-17T06:58:37;9.20;99.90
19586;DHT22;9939;49.246;9.106;2022-09-17T07:01:05;9.20;99.90
19586;DHT22;9939;49.246;9.106;2022-09-17T07:03:33;9.20;99.90
19586;DHT22;9939;49.246;9.106;2022-09-17T07:06:00;9.10;99.90
19586;DHT22;9939;49.246;9.106;2022-09-17T07:08:27;9.10;99.90
19586;DHT22;9939;49.246;9.106;2022-09-17T07:10:55;9.20;99.90
19586;DHT22;9939;49.246;9.106;2022-09-17T07:13:22;9.30;99.90
19586;DHT22;9939;49.246;9.106;2022-09-17T07:15:55;9.40;99.90
19586;DHT22;9939;49.246;9.106;2022-09-17T07:18:24;9.60;99.90
19586;DHT22;9939;49.246;9.106;2022-09-17T07:20:56;9.80;99.90
19586;DHT22;9939;49.246;9.106;2022-09-17T07:23:24;10.00;99.90
19586;DHT22;9939;49.246;9.106;2022-09-17T07:25:53;10.20;99.90
19586;DHT22;9939;49.246;9.106;2022-09-17T07:28:20;10.40;99.90
19586;DHT22;9939;49.246;9.106;2022-09-17T07:30:49;10.50;99.90
19586;DHT22;9939;49.246;9.106;2022-09-17T07:33:17;10.80;99.90
19586;DHT22;9939;49.246;9.106;2022-09-17T07:35:56;10.80;99.90
19586;DHT22;9939;49.246;9.106;2022-09-17T07:38:25;11.00;99.90
19586;DHT22;9939;49.246;9.106;2022-09-17T07:41:13;11.10;99.90
19586;DHT22;9939;49.246;9.106;2022-09-17T07:43:41;11.20;99.90
19586;DHT22;9939;49.246;9.106;2022-09-17T07:46:14;11.20;99.90
19586;DHT22;9939;49.246;9.106;2022-09-17T07:48:42;11.50;99.90
19586;DHT22;9939;49.246;9.106;2022-09-17T07:51:18;11.70;99.90
19586;DHT22;9939;49.246;9.106;2022-09-17T07:53:45;11.80;99.90
19586;DHT22;9939;49.246;9.106;2022-09-17T07:56:13;11.60;99.90
19586;DHT22;9939;49.246;9.106;2022-09-17T07:58:41;12.50;99.90
19586;DHT22;9939;49.246;9.106;2022-09-17T08:01:12;12.70;99.90
19586;DHT22;9939;49.246;9.106;2022-09-17T08:03:42;13.00;99.90
19586;DHT22;9939;49.246;9.106;2022-09-17T08:06:12;12.30;99.90
19586;DHT22;9939;49.246;9.106;2022-09-17T08:08:40;12.00;99.90
19586;DHT22;9939;49.246;9.106;2022-09-17T08:11:14;12.70;99.90
19586;DHT22;9939;49.246;9.106;2022-09-17T08:13:58;12.50;99.90
19586;DHT22;9939;49.246;9.106;2022-09-17T08:16:25;12.50;99.90
19586;DHT22;9939;49.246;9.106;2022-09-17T08:18:55;12.30;99.90
19586;DHT22;9939;49.246;9.106;2022-09-17T08:21:22;12.50;99.90
19586;DHT22;9939;49.246;9.106;2022-09-17T08:23:49;12.60;99.90
19586;DHT22;9939;49.246;9.106;2022-09-17T08:26:18;12.70;99.90
19586;DHT22;9939;49.246;9.106;2022-09-17T08:28:54;12.70;99.90
19586;DHT22;9939;49.246;9.106;2022-09-17T08:31:24;12.60;99.90
19586;DHT22;9939;49.246;9.106;2022-09-17T08:33:52;12.60;99.90
19586;DHT22;9939;49.246;9.106;2022-09-17T08:36:19;12.70;99.90
19586;DHT22;9939;49.246;9.106;2022-09-17T08:38:52;12.80;99.90
19586;DHT22;9939;49.246;9.106;2022-09-17T08:42:08;12.90;99.90
19586;DHT22;9939;49.246;9.106;2022-09-17T08:44:45;12.80;99.90
19586;DHT22;9939;49.246;9.106;2022-09-17T08:47:36;12.90;99.90
19586;DHT22;9939;49.246;9.106;2022-09-17T08:50:17;12.80;99.90
19586;DHT22;9939;49.246;9.106;2022-09-17T08:53:18;12.50;99.90
19586;DHT22;9939;49.246;9.106;2022-09-17T09:01:41;12.40;99.90
19586;DHT22;9939;49.246;9.106;2022-09-17T09:04:33;12.50;99.90
19586;DHT22;9939;49.246;9.106;2022-09-17T09:07:12;12.40;99.90
19586;DHT22;9939;49.246;9.106;2022-09-17T09:09:55;12.60;99.90
19586;DHT22;9939;49.246;9.106;2022-09-17T09:12:27;12.60;99.90
19586;DHT22;9939;49.246;9.106;2022-09-17T09:15:07;13.10;99.90
19586;DHT22;9939;49.246;9.106;2022-09-17T09:17:43;15.20;99.90
19586;DHT22;9939;49.246;9.106;2022-09-17T09:20:48;17.00;99.90
19586;DHT22;9939;49.246;9.106;2022-09-17T09:23:25;17.30;99.90
19586;DHT22;9939;49.246;9.106;2022-09-17T09:26:09;17.60;99.90
19586;DHT22;9939;49.246;9.106;2022-09-17T09:34:18;15.90;99.90
19586;DHT22;9939;49.246;9.106;2022-09-17T09:36:45;15.70;99.90
19586;DHT22;9939;49.246;9.106;2022-09-17T09:39:25;17.10;99.90
19586;DHT22;9939;49.246;9.106;2022-09-17T09:42:03;17.60;99.90
19586;DHT22;9939;49.246;9.106;2022-09-17T09:44:31;18.50;99.90
19586;DHT22;9939;49.246;9.106;2022-09-17T09:57:52;19.70;99.90
19586;DHT22;9939;49.246;9.106;2022-09-17T10:05:59;16.80;99.90
19586;DHT22;9939;49.246;9.106;2022-09-17T10:08:32;15.10;99.90
19586;DHT22;9939;49.246;9.106;2022-09-17T10:11:03;14.30;99.90
19586;DHT22;9939;49.246;9.106;2022-09-17T10:13:35;13.50;99.90
19586;DHT22;9939;49.246;9.106;2022-09-17T10:18:49;12.10;99.90
19586;DHT22;9939;49.246;9.106;2022-09-17T10:23:58;11.50;99.90
19586;DHT22;9939;49.246;9.106;2022-09-17T10:26:33;11.50;99.90
19586;DHT22;9939;49.246;9.106;2022-09-17T10:29:10;11.80;99.90
19586;DHT22;9939;49.246;9.106;2022-09-17T10:31:52;12.30;99.90
19586;DHT22;9939;49.246;9.106;2022-09-17T10:34:25;12.50;99.90
19586;DHT22;9939;49.246;9.106;2022-09-17T10:36:53;12.60;99.90
19586;DHT22;9939;49.246;9.106;2022-09-17T10:42:02;12.50;99.90
19586;DHT22;9939;49.246;9.106;2022-09-17T10:44:34;12.30;99.90
19586;DHT22;9939;49.246;9.106;2022-09-17T10:47:11;12.10;99.90
19586;DHT22;9939;49.246;9.106;2022-09-17T10:49:47;12.20;99.90
19586;DHT22;9939;49.246;9.106;2022-09-17T11:01:33;20.50;99.90
19586;DHT22;9939;49.246;9.106;2022-09-17T11:10:05;23.30;99.90
19586;DHT22;9939;49.246;9.106;2022-09-17T11:21:39;19.40;99.90
19586;DHT22;9939;49.246;9.106;2022-09-17T11:35:40;14.90;99.90
19586;DHT22;9939;49.246;9.106;2022-09-17T11:44:26;17.70;99.90
19586;DHT22;9939;49.246;9.106;2022-09-17T11:47:07;17.70;99.90
19586;DHT22;9939;49.246;9.106;2022-09-17T11:49:41;17.70;99.90
19586;DHT22;9939;49.246;9.106;2022-09-17T11:52:17;17.80;99.90
19586;DHT22;9939;49.246;9.106;2022-09-17T11:54:59;17.60;99.90
19586;DHT22;9939;49.246;9.106;2022-09-17T11:57:35;17.10;99.90
19586;DHT22;9939;49.246;9.106;2022-09-17T12:02:49;14.70;99.90
19586;DHT22;9939;49.246;9.106;2022-09-17T12:05:33;13.80;99.90
19586;DHT22;9939;49.246;9.106;2022-09-17T12:08:18;13.10;99.90
19586;DHT22;9939;49.246;9.106;2022-09-17T12:13:56;12.30;99.90
19586;DHT22;9939;49.246;9.106;2022-09-17T12:16:36;12.40;99.90
19586;DHT22;9939;49.246;9.106;2022-09-17T12:19:13;12.40;99.90
19586;DHT22;9939;49.246;9.106;2022-09-17T12:21:48;12.40;99.90
19586;DHT22;9939;49.246;9.106;2022-09-17T12:24:28;12.80;99.90
19586;DHT22;9939;49.246;9.106;2022-09-17T12:30:37;13.40;99.90
19586;DHT22;9939;49.246;9.106;2022-09-17T12:41:20;17.60;99.90
19586;DHT22;9939;49.246;9.106;2022-09-17T12:46:53;18.50;99.90
19586;DHT22;9939;49.246;9.106;2022-09-17T12:52:39;20.10;99.90
19586;DHT22;9939;49.246;9.106;2022-09-17T12:58:03;19.70;99.90
19586;DHT22;9939;49.246;9.106;2022-09-17T13:00:39;20.30;99.90
19586;DHT22;9939;49.246;9.106;2022-09-17T13:03:21;21.60;99.90
19586;DHT22;9939;49.246;9.106;2022-09-17T13:09:18;21.20;99.90
19586;DHT22;9939;49.246;9.106;2022-09-17T13:12:07;22.00;99.90
19586;DHT22;9939;49.246;9.106;2022-09-17T13:17:23;23.20;99.90
19586;DHT22;9939;49.246;9.106;2022-09-17T13:20:04;21.40;99.90
19586;DHT22;9939;49.246;9.106;2022-09-17T13:22:46;20.20;99.90
19586;DHT22;9939;49.246;9.106;2022-09-17T13:25:16;19.60;99.90
19586;DHT22;9939;49.246;9.106;2022-09-17T13:27:45;19.20;99.90
19586;DHT22;9939;49.246;9.106;2022-09-17T13:30:17;18.50;99.90
19586;DHT22;9939;49.246;9.106;2022-09-17T13:32:49;17.50;99.90
19586;DHT22;9939;49.246;9.106;2022-09-17T13:37:56;17.00;99.90
19586;DHT22;9939;49.246;9.106;2022-09-17T13:40:31;16.50;99.90
19586;DHT22;9939;49.246;9.106;2022-09-17T13:43:11;16.40;99.90
19586;DHT22;9939;49.246;9.106;2022-09-17T13:48:33;16.80;99.90
19586;DHT22;9939;49.246;9.106;2022-09-17T13:54:02;16.50;99.90
19586;DHT22;9939;49.246;9.106;2022-09-17T14:01:58;19.00;99.90
19586;DHT22;9939;49.246;9.106;2022-09-17T14:10:01;22.20;99.90
19586;DHT22;9939;49.246;9.106;2022-09-17T14:15:36;20.40;99.90
19586;DHT22;9939;49.246;9.106;2022-09-17T14:23:49;21.40;99.90
19586;DHT22;9939;49.246;9.106;2022-09-17T14:26:54;24.70;99.90
19586;DHT22;9939;49.246;9.106;2022-09-17T14:32:00;27.90;99.90
19586;DHT22;9939;49.246;9.106;2022-09-17T14:34:27;26.20;99.90
19586;DHT22;9939;49.246;9.106;2022-09-17T14:36:55;26.10;99.90
19586;DHT22;9939;49.246;9.106;2022-09-17T14:39:36;26.30;99.40
19586;DHT22;9939;49.246;9.106;2022-09-17T14:42:11;25.30;99.90
19586;DHT22;9939;49.246;9.106;2022-09-17T14:44:59;25.00;99.90
19586;DHT22;9939;49.246;9.106;2022-09-17T14:47:27;25.00;99.90
19586;DHT22;9939;49.246;9.106;2022-09-17T14:49:56;25.50;99.90
19586;DHT22;9939;49.246;9.106;2022-09-17T14:52:48;25.60;99.90
19586;DHT22;9939;49.246;9.106;2022-09-17T14:57:53;26.70;99.90
19586;DHT22;9939;49.246;9.106;2022-09-17T15:00:40;25.80;99.90
19586;DHT22;9939;49.246;9.106;2022-09-17T15:03:20;25.80;99.90
19586;DHT22;9939;49.246;9.106;2022-09-17T15:05:48;25.80;99.80
19586;DHT22;9939;49.246;9.106;2022-09-17T15:08:19;22.50;99.90
19586;DHT22;9939;49.246;9.106;2022-09-17T15:10:59;19.20;99.90
19586;DHT22;9939;49.246;9.106;2022-09-17T15:13:30;17.70;99.90
19586;DHT22;9939;49.246;9.106;2022-09-17T15:16:06;16.90;99.90
19586;DHT22;9939;49.246;9.106;2022-09-17T15:18:47;17.30;99.90
19586;DHT22;9939;49.246;9.106;2022-09-17T15:21:35;17.40;99.90
19586;DHT22;9939;49.246;9.106;2022-09-17T15:27:11;23.60;99.90
19586;DHT22;9939;49.246;9.106;2022-09-17T15:29:43;23.80;99.90
19586;DHT22;9939;49.246;9.106;2022-09-17T15:32:12;24.50;99.90
19586;DHT22;9939;49.246;9.106;2022-09-17T15:34:40;23.30;99.90
19586;DHT22;9939;49.246;9.106;2022-09-17T15:37:17;22.60;99.90
19586;DHT22;9939;49.246;9.106;2022-09-17T15:39:50;21.70;99.90
19586;DHT22;9939;49.246;9.106;2022-09-17T15:44:50;21.70;99.90
19586;DHT22;9939;49.246;9.106;2022-09-17T15:47:55;22.10;99.90
19586;DHT22;9939;49.246;9.106;2022-09-17T15:50:28;20.50;99.90
19586;DHT22;9939;49.246;9.106;2022-09-17T15:55:37;17.40;99.90
19586;DHT22;9939;49.246;9.106;2022-09-17T16:08:48;15.50;99.90
19586;DHT22;9939;49.246;9.106;2022-09-17T16:11:22;15.50;99.90
19586;DHT22;9939;49.246;9.106;2022-09-17T16:13:50;15.50;99.90
19586;DHT22;9939;49.246;9.106;2022-09-17T16:16:35;15.50;99.90
19586;DHT22;9939;49.246;9.106;2022-09-17T16:19:03;15.40;99.90
19586;DHT22;9939;49.246;9.106;2022-09-17T16:21:31;15.20;99.90
19586;DHT22;9939;49.246;9.106;2022-09-17T16:23:58;15.00;99.90
19586;DHT22;9939;49.246;9.106;2022-09-17T16:26:30;14.80;99.90
19586;DHT22;9939;49.246;9.106;2022-09-17T16:29:06;14.70;99.90
19586;DHT22;9939;49.246;9.106;2022-09-17T16:31:36;14.40;99.90
19586;DHT22;9939;49.246;9.106;2022-09-17T16:34:03;14.20;99.90
19586;DHT22;9939;49.246;9.106;2022-09-17T16:36:30;14.10;99.90
19586;DHT22;9939;49.246;9.106;2022-09-17T16:38:58;14.10;99.90
19586;DHT22;9939;49.246;9.106;2022-09-17T16:41:26;14.00;99.90
19586;DHT22;9939;49.246;9.106;2022-09-17T16:43:53;14.10;99.90
19586;DHT22;9939;49.246;9.106;2022-09-17T16:46:20;14.00;99.90
19586;DHT22;9939;49.246;9.106;2022-09-17T16:48:50;13.80;99.90
19586;DHT22;9939;49.246;9.106;2022-09-17T16:51:18;13.60;99.90
19586;DHT22;9939;49.246;9.106;2022-09-17T16:53:45;13.60;99.90
19586;DHT22;9939;49.246;9.106;2022-09-17T16:56:15;13.60;99.90
19586;DHT22;9939;49.246;9.106;2022-09-17T16:58:42;13.40;99.90
19586;DHT22;9939;49.246;9.106;2022-09-17T17:01:14;13.30;99.90
19586;DHT22;9939;49.246;9.106;2022-09-17T17:03:42;13.10;99.90
19586;DHT22;9939;49.246;9.106;2022-09-17T17:06:18;13.00;99.90
19586;DHT22;9939;49.246;9.106;2022-09-17T17:08:45;13.00;99.90
19586;DHT22;9939;49.246;9.106;2022-09-17T17:11:13;13.00;99.90
19586;DHT22;9939;49.246;9.106;2022-09-17T17:13:43;13.00;99.90
19586;DHT22;9939;49.246;9.106;2022-09-17T17:16:13;13.00;99.90
19586;DHT22;9939;49.246;9.106;2022-09-17T17:18:44;13.00;99.90
19586;DHT22;9939;49.246;9.106;2022-09-17T17:21:12;12.90;99.90
19586;DHT22;9939;49.246;9.106;2022-09-17T17:23:40;12.90;99.90
19586;DHT22;9939;49.246;9.106;2022-09-17T17:26:09;12.60;99.90
19586;DHT22;9939;49.246;9.106;2022-09-17T17:28:36;12.30;99.90
19586;DHT22;9939;49.246;9.106;2022-09-17T17:31:04;12.00;99.90
19586;DHT22;9939;49.246;9.106;2022-09-17T17:33:32;11.60;99.90
19586;DHT22;9939;49.246;9.106;2022-09-17T17:36:00;11.40;99.90
19586;DHT22;9939;49.246;9.106;2022-09-17T17:38:34;11.30;99.90
19586;DHT22;9939;49.246;9.106;2022-09-17T17:41:06;11.10;99.90
19586;DHT22;9939;49.246;9.106;2022-09-17T17:43:34;11.10;99.90
19586;DHT22;9939;49.246;9.106;2022-09-17T17:46:04;11.00;99.90
19586;DHT22;9939;49.246;9.106;2022-09-17T17:48:33;10.80;99.90
19586;DHT22;9939;49.246;9.106;2022-09-17T17:51:04;10.70;99.90
19586;DHT22;9939;49.246;9.106;2022-09-17T17:53:32;10.70;99.90
19586;DHT22;9939;49.246;9.106;2022-09-17T17:56:04;10.60;99.90
19586;DHT22;9939;49.246;9.106;2022-09-17T17:58:33;10.40;99.90
19586;DHT22;9939;49.246;9.106;2022-09-17T18:01:12;10.20;99.90
19586;DHT22;9939;49.246;9.106;2022-09-17T18:03:39;10.20;99.90
19586;DHT22;9939;49.246;9.106;2022-09-17T18:06:07;10.10;99.90
19586;DHT22;9939;49.246;9.106;2022-09-17T18:08:39;10.10;99.90
19586;DHT22;9939;49.246;9.106;2022-09-17T18:11:08;9.90;99.90
19586;DHT22;9939;49.246;9.106;2022-09-17T18:13:37;9.90;99.90
19586;DHT22;9939;49.246;9.106;2022-09-17T18:16:06;9.90;99.90
19586;DHT22;9939;49.246;9.106;2022-09-17T18:18:42;9.80;99.90
19586;DHT22;9939;49.246;9.106;2022-09-17T18:21:16;9.70;99.90
19586;DHT22;9939;49.246;9.106;2022-09-17T18:23:44;9.70;99.90
19586;DHT22;9939;49.246;9.106;2022-09-17T18:26:23;9.60;99.90
19586;DHT22;9939;49.246;9.106;2022-09-17T18:28:50;9.60;99.90
19586;DHT22;9939;49.246;9.106;2022-09-17T18:31:26;9.40;99.90
19586;DHT22;9939;49.246;9.106;2022-09-17T18:36:28;9.50;99.90
19586;DHT22;9939;49.246;9.106;2022-09-17T18:38:57;9.40;99.90
19586;DHT22;9939;49.246;9.106;2022-09-17T18:41:47;9.40;99.90
19586;DHT22;9939;49.246;9.106;2022-09-17T18:44:14;9.40;99.90
19586;DHT22;9939;49.246;9.106;2022-09-17T18:46:41;9.40;99.90
19586;DHT22;9939;49.246;9.106;2022-09-17T18:49:08;9.40;99.90
19586;DHT22;9939;49.246;9.106;2022-09-17T18:51:36;9.40;99.90
19586;DHT22;9939;49.246;9.106;2022-09-17T18:54:03;9.50;99.90
19586;DHT22;9939;49.246;9.106;2022-09-17T18:56:31;9.50;99.90
19586;DHT22;9939;49.246;9.106;2022-09-17T18:58:59;9.60;99.90
19586;DHT22;9939;49.246;9.106;2022-09-17T19:01:31;9.40;99.90
19586;DHT22;9939;49.246;9.106;2022-09-17T19:03:59;9.50;99.90
19586;DHT22;9939;49.246;9.106;2022-09-17T19:06:26;9.40;99.90
19586;DHT22;9939;49.246;9.106;2022-09-17T19:08:58;9.40;99.90
19586;DHT22;9939;49.246;9.106;2022-09-17T19:11:26;9.50;99.90
19586;DHT22;9939;49.246;9.106;2022-09-17T19:13:54;9.40;99.90
19586;DHT22;9939;49.246;9.106;2022-09-17T19:16:21;9.30;99.90
19586;DHT22;9939;49.246;9.106;2022-09-17T19:18:48;9.40;99.90
19586;DHT22;9939;49.246;9.106;2022-09-17T19:21:18;9.20;99.90
19586;DHT22;9939;49.246;9.106;2022-09-17T19:23:48;9.30;99.90
19586;DHT22;9939;49.246;9.106;2022-09-17T19:26:19;9.30;99.90
19586;DHT22;9939;49.246;9.106;2022-09-17T19:28:46;9.40;99.90
19586;DHT22;9939;49.246;9.106;2022-09-17T19:31:15;9.30;99.90
19586;DHT22;9939;49.246;9.106;2022-09-17T19:33:43;9.20;99.90
19586;DHT22;9939;49.246;9.106;2022-09-17T19:36:13;9.20;99.90
19586;DHT22;9939;49.246;9.106;2022-09-17T19:38:40;9.20;99.90
19586;DHT22;9939;49.246;9.106;2022-09-17T19:41:16;9.10;99.90
19586;DHT22;9939;49.246;9.106;2022-09-17T19:43:44;9.20;99.90
19586;DHT22;9939;49.246;9.106;2022-09-17T19:46:13;9.40;99.90
19586;DHT22;9939;49.246;9.106;2022-09-17T19:48:51;9.40;99.90
19586;DHT22;9939;49.246;9.106;2022-09-17T19:51:20;9.50;99.90
19586;DHT22;9939;49.246;9.106;2022-09-17T19:53:47;9.50;99.90
19586;DHT22;9939;49.246;9.106;2022-09-17T19:56:16;9.50;99.90
19586;DHT22;9939;49.246;9.106;2022-09-17T19:58:44;9.50;99.90
19586;DHT22;9939;49.246;9.106;2022-09-17T20:01:12;9.60;99.90